sensor_id;sensor_type;location;lat;lon;timestamp;temperature;humidity
15717;DHT22;7960;50.908;4.204;2023-04-01T00:01:41;9.50;99.90
15717;DHT22;7960;50.908;4.204;2023-04-01T00:04:08;9.50;99.90
15717;DHT22;7960;50.908;4.204;2023-04-01T00:06:35;9.50;99.90
15717;DHT22;7960;50.908;4.204;2023-04-01T00:09:04;9.50;99.90
15717;DHT22;7960;50.908;4.204;2023-04-01T00:11:31;9.50;99.90
15717;DHT22;7960;50.908;4.204;2023-04-01T00:13:58;9.50;99.90
15717;DHT22;7960;50.908;4.204;2023-04-01T00:16:26;9.50;99.90
15717;DHT22;7960;50.908;4.204;2023-04-01T00:18:52;9.50;99.90
15717;DHT22;7960;50.908;4.204;2023-04-01T00:21:20;9.50;99.90
15717;DHT22;7960;50.908;4.204;2023-04-01T00:23:47;9.50;99.90
15717;DHT22;7960;50.908;4.204;2023-04-01T00:26:15;9.50;99.90
15717;DHT22;7960;50.908;4.204;2023-04-01T00:28:44;9.50;99.90
15717;DHT22;7960;50.908;4.204;2023-04-01T00:31:12;9.50;99.90
15717;DHT22;7960;50.908;4.204;2023-04-01T00:33:40;9.50;99.90
15717;DHT22;7960;50.908;4.204;2023-04-01T00:36:08;9.50;99.90
15717;DHT22;7960;50.908;4.204;2023-04-01T00:38:35;9.50;99.90
15717;DHT22;7960;50.908;4.204;2023-04-01T00:41:03;9.50;99.90
15717;DHT22;7960;50.908;4.204;2023-04-01T00:43:31;9.50;99.90
15717;DHT22;7960;50.908;4.204;2023-04-01T00:45:58;9.50;99.90
15717;DHT22;7960;50.908;4.204;2023-04-01T00:48:28;9.50;99.90
15717;DHT22;7960;50.908;4.204;2023-04-01T00:51:00;9.50;99.90
15717;DHT22;7960;50.908;4.204;2023-04-01T00:53:28;9.50;99.90
15717;DHT22;7960;50.908;4.204;2023-04-01T00:56:00;9.50;99.90
15717;DHT22;7960;50.908;4.204;2023-04-01T00:58:32;9.40;99.90
15717;DHT22;7960;50.908;4.204;2023-04-01T01:01:01;9.50;99.90
15717;DHT22;7960;50.908;4.204;2023-04-01T01:03:28;9.40;99.90
15717;DHT22;7960;50.908;4.204;2023-04-01T01:06:11;9.50;99.90
15717;DHT22;7960;50.908;4.204;2023-04-01T01:08:52;9.40;99.90
15717;DHT22;7960;50.908;4.204;2023-04-01T01:11:29;9.40;99.90
15717;DHT22;7960;50.908;4.204;2023-04-01T01:14:04;9.40;99.90
15717;DHT22;7960;50.908;4.204;2023-04-01T01:16:37;9.40;99.90
15717;DHT22;7960;50.908;4.204;2023-04-01T01:19:11;9.40;99.90
15717;DHT22;7960;50.908;4.204;2023-04-01T01:21:53;9.40;99.90
15717;DHT22;7960;50.908;4.204;2023-04-01T01:24:34;9.40;99.90
15717;DHT22;7960;50.908;4.204;2023-04-01T01:27:08;9.40;99.90
15717;DHT22;7960;50.908;4.204;2023-04-01T01:30:12;9.40;99.90
15717;DHT22;7960;50.908;4.204;2023-04-01T01:33:06;9.40;99.90
15717;DHT22;7960;50.908;4.204;2023-04-01T01:35:39;9.40;99.90
15717;DHT22;7960;50.908;4.204;2023-04-01T01:38:13;9.30;99.90
15717;DHT22;7960;50.908;4.204;2023-04-01T01:41:07;9.30;99.90
15717;DHT22;7960;50.908;4.204;2023-04-01T01:43:38;9.30;99.90
15717;DHT22;7960;50.908;4.204;2023-04-01T01:46:09;9.30;99.90
15717;DHT22;7960;50.908;4.204;2023-04-01T01:48:37;9.30;99.90
15717;DHT22;7960;50.908;4.204;2023-04-01T01:51:07;9.30;99.90
15717;DHT22;7960;50.908;4.204;2023-04-01T01:53:34;9.30;99.90
15717;DHT22;7960;50.908;4.204;2023-04-01T01:56:01;9.30;99.90
15717;DHT22;7960;50.908;4.204;2023-04-01T01:58:30;9.30;99.90
15717;DHT22;7960;50.908;4.204;2023-04-01T02:01:02;9.20;99.90
15717;DHT22;7960;50.908;4.204;2023-04-01T02:03:34;9.20;99.90
15717;DHT22;7960;50.908;4.204;2023-04-01T02:06:04;9.20;99.90
15717;DHT22;7960;50.908;4.204;2023-04-01T02:08:36;9.20;99.90
15717;DHT22;7960;50.908;4.204;2023-04-01T02:11:08;9.20;99.90
15717;DHT22;7960;50.908;4.204;2023-04-01T02:13:39;9.20;99.90
15717;DHT22;7960;50.908;4.204;2023-04-01T02:16:11;9.10;99.90
15717;DHT22;7960;50.908;4.204;2023-04-01T02:18:40;9.20;99.90
15717;DHT22;7960;50.908;4.204;2023-04-01T02:21:08;9.20;99.90
15717;DHT22;7960;50.908;4.204;2023-04-01T02:23:38;9.10;99.90
15717;DHT22;7960;50.908;4.204;2023-04-01T02:26:07;9.10;99.90
15717;DHT22;7960;50.908;4.204;2023-04-01T02:28:37;9.00;99.90
15717;DHT22;7960;50.908;4.204;2023-04-01T02:31:05;9.10;99.90
15717;DHT22;7960;50.908;4.204;2023-04-01T02:33:33;9.10;99.90
15717;DHT22;7960;50.908;4.204;2023-04-01T02:36:00;9.20;99.90
15717;DHT22;7960;50.908;4.204;2023-04-01T02:38:27;9.10;99.90
15717;DHT22;7960;50.908;4.204;2023-04-01T02:40:59;9.20;99.90
15717;DHT22;7960;50.908;4.204;2023-04-01T02:43:27;9.20;99.90
15717;DHT22;7960;50.908;4.204;2023-04-01T02:45:54;9.20;99.90
15717;DHT22;7960;50.908;4.204;2023-04-01T02:48:21;9.10;99.90
15717;DHT22;7960;50.908;4.204;2023-04-01T02:50:47;9.10;99.90
15717;DHT22;7960;50.908;4.204;2023-04-01T02:53:15;9.10;99.90
15717;DHT22;7960;50.908;4.204;2023-04-01T02:55:42;9.10;99.90
15717;DHT22;7960;50.908;4.204;2023-04-01T02:58:11;9.10;99.90
15717;DHT22;7960;50.908;4.204;2023-04-01T03:00:38;9.10;99.90
15717;DHT22;7960;50.908;4.204;2023-04-01T03:03:05;9.10;99.90
15717;DHT22;7960;50.908;4.204;2023-04-01T03:05:32;9.10;99.90
15717;DHT22;7960;50.908;4.204;2023-04-01T03:07:59;9.10;99.90
15717;DHT22;7960;50.908;4.204;2023-04-01T03:10:26;9.10;99.90
15717;DHT22;7960;50.908;4.204;2023-04-01T03:12:52;9.10;99.90
15717;DHT22;7960;50.908;4.204;2023-04-01T03:15:21;9.20;99.90
15717;DHT22;7960;50.908;4.204;2023-04-01T03:17:48;9.10;99.90
15717;DHT22;7960;50.908;4.204;2023-04-01T03:20:15;9.10;99.90
15717;DHT22;7960;50.908;4.204;2023-04-01T03:22:42;9.10;99.90
15717;DHT22;7960;50.908;4.204;2023-04-01T03:25:10;9.20;99.90
15717;DHT22;7960;50.908;4.204;2023-04-01T03:27:37;9.20;99.90
15717;DHT22;7960;50.908;4.204;2023-04-01T03:30:05;9.10;99.90
15717;DHT22;7960;50.908;4.204;2023-04-01T03:32:33;9.10;99.90
15717;DHT22;7960;50.908;4.204;2023-04-01T03:35:00;9.10;99.90
15717;DHT22;7960;50.908;4.204;2023-04-01T03:37:27;9.10;99.90
15717;DHT22;7960;50.908;4.204;2023-04-01T03:39:54;9.10;99.90
15717;DHT22;7960;50.908;4.204;2023-04-01T03:42:21;9.10;99.90
15717;DHT22;7960;50.908;4.204;2023-04-01T03:44:47;9.20;99.90
15717;DHT22;7960;50.908;4.204;2023-04-01T03:47:15;9.10;99.90
15717;DHT22;7960;50.908;4.204;2023-04-01T03:49:43;9.20;99.90
15717;DHT22;7960;50.908;4.204;2023-04-01T03:52:10;9.10;99.90
15717;DHT22;7960;50.908;4.204;2023-04-01T03:54:37;9.20;99.90
15717;DHT22;7960;50.908;4.204;2023-04-01T03:57:04;9.20;99.90
15717;DHT22;7960;50.908;4.204;2023-04-01T03:59:31;9.10;99.90
15717;DHT22;7960;50.908;4.204;2023-04-01T04:01:57;9.10;99.90
15717;DHT22;7960;50.908;4.204;2023-04-01T04:04:24;9.10;99.90
15717;DHT22;7960;50.908;4.204;2023-04-01T04:06:53;9.10;99.90
15717;DHT22;7960;50.908;4.204;2023-04-01T04:09:20;9.10;99.90
15717;DHT22;7960;50.908;4.204;2023-04-01T04:11:47;9.10;99.90
15717;DHT22;7960;50.908;4.204;2023-04-01T04:14:14;9.10;99.90
15717;DHT22;7960;50.908;4.204;2023-04-01T04:16:41;9.10;99.90
15717;DHT22;7960;50.908;4.204;2023-04-01T04:19:08;9.10;99.90
15717;DHT22;7960;50.908;4.204;2023-04-01T04:21:34;9.10;99.90
15717;DHT22;7960;50.908;4.204;2023-04-01T04:24:03;9.10;99.90
15717;DHT22;7960;50.908;4.204;2023-04-01T04:26:30;9.10;99.90
15717;DHT22;7960;50.908;4.204;2023-04-01T04:28:57;9.10;99.90
15717;DHT22;7960;50.908;4.204;2023-04-01T04:31:25;9.10;99.90
15717;DHT22;7960;50.908;4.204;2023-04-01T04:33:52;9.10;99.90
15717;DHT22;7960;50.908;4.204;2023-04-01T04:36:20;9.00;99.90
15717;DHT22;7960;50.908;4.204;2023-04-01T04:38:47;9.00;99.90
15717;DHT22;7960;50.908;4.204;2023-04-01T04:41:16;9.00;99.90
15717;DHT22;7960;50.908;4.204;2023-04-01T04:43:49;9.00;99.90
15717;DHT22;7960;50.908;4.204;2023-04-01T04:46:16;9.00;99.90
15717;DHT22;7960;50.908;4.204;2023-04-01T04:48:43;9.00;99.90
15717;DHT22;7960;50.908;4.204;2023-04-01T04:51:13;9.00;99.90
15717;DHT22;7960;50.908;4.204;2023-04-01T04:53:40;9.00;99.90
15717;DHT22;7960;50.908;4.204;2023-04-01T04:56:07;9.10;99.90
15717;DHT22;7960;50.908;4.204;2023-04-01T04:58:35;9.10;99.90
15717;DHT22;7960;50.908;4.204;2023-04-01T05:01:06;9.10;99.90
15717;DHT22;7960;50.908;4.204;2023-04-01T05:03:33;9.10;99.90
15717;DHT22;7960;50.908;4.204;2023-04-01T05:06:00;9.10;99.90
15717;DHT22;7960;50.908;4.204;2023-04-01T05:08:26;9.10;99.90
15717;DHT22;7960;50.908;4.204;2023-04-01T05:10:53;9.10;99.90
15717;DHT22;7960;50.908;4.204;2023-04-01T05:13:20;9.00;99.90
15717;DHT22;7960;50.908;4.204;2023-04-01T05:15:48;9.00;99.90
15717;DHT22;7960;50.908;4.204;2023-04-01T05:18:15;9.10;99.90
15717;DHT22;7960;50.908;4.204;2023-04-01T05:20:46;9.10;99.90
15717;DHT22;7960;50.908;4.204;2023-04-01T05:23:13;9.00;99.90
15717;DHT22;7960;50.908;4.204;2023-04-01T05:25:40;9.00;99.90
15717;DHT22;7960;50.908;4.204;2023-04-01T05:28:07;9.00;99.90
15717;DHT22;7960;50.908;4.204;2023-04-01T05:30:33;9.00;99.90
15717;DHT22;7960;50.908;4.204;2023-04-01T05:33:02;9.00;99.90
15717;DHT22;7960;50.908;4.204;2023-04-01T05:35:29;9.00;99.90
15717;DHT22;7960;50.908;4.204;2023-04-01T05:37:55;8.90;99.90
15717;DHT22;7960;50.908;4.204;2023-04-01T05:40:22;9.00;99.90
15717;DHT22;7960;50.908;4.204;2023-04-01T05:42:49;9.00;99.90
15717;DHT22;7960;50.908;4.204;2023-04-01T05:45:16;9.00;99.90
15717;DHT22;7960;50.908;4.204;2023-04-01T05:47:43;9.00;99.90
15717;DHT22;7960;50.908;4.204;2023-04-01T05:50:11;8.90;99.90
15717;DHT22;7960;50.908;4.204;2023-04-01T05:52:39;9.00;99.90
15717;DHT22;7960;50.908;4.204;2023-04-01T05:55:06;9.00;99.90
15717;DHT22;7960;50.908;4.204;2023-04-01T05:57:33;9.00;99.90
15717;DHT22;7960;50.908;4.204;2023-04-01T06:00:00;8.90;99.90
15717;DHT22;7960;50.908;4.204;2023-04-01T06:02:27;9.00;99.90
15717;DHT22;7960;50.908;4.204;2023-04-01T06:05:02;9.00;99.90
15717;DHT22;7960;50.908;4.204;2023-04-01T06:07:31;9.00;99.90
15717;DHT22;7960;50.908;4.204;2023-04-01T06:09:58;9.00;99.90
15717;DHT22;7960;50.908;4.204;2023-04-01T06:12:38;9.00;99.90
15717;DHT22;7960;50.908;4.204;2023-04-01T06:15:17;9.00;99.90
15717;DHT22;7960;50.908;4.204;2023-04-01T06:18:19;9.00;99.90
15717;DHT22;7960;50.908;4.204;2023-04-01T06:20:55;8.90;99.90
15717;DHT22;7960;50.908;4.204;2023-04-01T06:23:35;8.90;99.90
15717;DHT22;7960;50.908;4.204;2023-04-01T06:26:15;8.90;99.90
15717;DHT22;7960;50.908;4.204;2023-04-01T06:29:04;8.90;99.90
15717;DHT22;7960;50.908;4.204;2023-04-01T06:34:35;8.90;99.90
15717;DHT22;7960;50.908;4.204;2023-04-01T06:37:23;8.90;99.90
15717;DHT22;7960;50.908;4.204;2023-04-01T06:40:12;8.90;99.90
15717;DHT22;7960;50.908;4.204;2023-04-01T06:42:58;8.90;99.90
15717;DHT22;7960;50.908;4.204;2023-04-01T06:45:34;8.90;99.90
15717;DHT22;7960;50.908;4.204;2023-04-01T06:48:17;9.00;99.90
15717;DHT22;7960;50.908;4.204;2023-04-01T06:50:52;9.00;99.90
15717;DHT22;7960;50.908;4.204;2023-04-01T06:53:28;9.00;99.90
15717;DHT22;7960;50.908;4.204;2023-04-01T06:56:04;9.10;99.90
15717;DHT22;7960;50.908;4.204;2023-04-01T06:58:36;9.00;99.90
15717;DHT22;7960;50.908;4.204;2023-04-01T07:01:07;9.00;99.90
15717;DHT22;7960;50.908;4.204;2023-04-01T07:03:38;9.00;99.90
15717;DHT22;7960;50.908;4.204;2023-04-01T07:06:09;9.00;99.90
15717;DHT22;7960;50.908;4.204;2023-04-01T07:08:40;9.00;99.90
15717;DHT22;7960;50.908;4.204;2023-04-01T07:11:14;8.90;99.90
15717;DHT22;7960;50.908;4.204;2023-04-01T07:13:49;9.00;99.90
15717;DHT22;7960;50.908;4.204;2023-04-01T07:16:21;9.00;99.90
15717;DHT22;7960;50.908;4.204;2023-04-01T07:18:54;9.00;99.90
15717;DHT22;7960;50.908;4.204;2023-04-01T07:21:26;9.10;99.90
15717;DHT22;7960;50.908;4.204;2023-04-01T07:23:59;9.00;99.90
15717;DHT22;7960;50.908;4.204;2023-04-01T07:26:29;9.10;99.90
15717;DHT22;7960;50.908;4.204;2023-04-01T07:28:57;9.00;99.90
15717;DHT22;7960;50.908;4.204;2023-04-01T07:31:36;9.00;99.90
15717;DHT22;7960;50.908;4.204;2023-04-01T07:34:11;9.00;99.90
15717;DHT22;7960;50.908;4.204;2023-04-01T07:36:43;9.00;99.90
15717;DHT22;7960;50.908;4.204;2023-04-01T07:39:25;9.00;99.90
15717;DHT22;7960;50.908;4.204;2023-04-01T07:42:03;9.00;99.90
15717;DHT22;7960;50.908;4.204;2023-04-01T07:44:38;9.00;99.90
15717;DHT22;7960;50.908;4.204;2023-04-01T07:47:15;9.00;99.90
15717;DHT22;7960;50.908;4.204;2023-04-01T07:49:53;9.10;99.90
15717;DHT22;7960;50.908;4.204;2023-04-01T07:52:27;9.10;99.90
15717;DHT22;7960;50.908;4.204;2023-04-01T07:54:59;9.10;99.90
15717;DHT22;7960;50.908;4.204;2023-04-01T07:57:37;9.10;99.90
15717;DHT22;7960;50.908;4.204;2023-04-01T08:00:13;9.00;99.90
15717;DHT22;7960;50.908;4.204;2023-04-01T08:02:57;9.10;99.90
15717;DHT22;7960;50.908;4.204;2023-04-01T08:05:28;9.10;99.90
15717;DHT22;7960;50.908;4.204;2023-04-01T08:08:03;9.10;99.90
15717;DHT22;7960;50.908;4.204;2023-04-01T08:10:36;9.20;99.90
15717;DHT22;7960;50.908;4.204;2023-04-01T08:13:12;9.10;99.90
15717;DHT22;7960;50.908;4.204;2023-04-01T08:15:47;9.10;99.90
15717;DHT22;7960;50.908;4.204;2023-04-01T08:18:26;9.20;99.90
15717;DHT22;7960;50.908;4.204;2023-04-01T08:21:25;9.20;99.90
15717;DHT22;7960;50.908;4.204;2023-04-01T08:24:24;9.10;99.90
15717;DHT22;7960;50.908;4.204;2023-04-01T08:26:55;9.20;99.90
15717;DHT22;7960;50.908;4.204;2023-04-01T08:29:30;9.20;99.90
15717;DHT22;7960;50.908;4.204;2023-04-01T08:32:06;9.20;99.90
15717;DHT22;7960;50.908;4.204;2023-04-01T08:34:38;9.20;99.90
15717;DHT22;7960;50.908;4.204;2023-04-01T08:37:09;9.40;99.90
15717;DHT22;7960;50.908;4.204;2023-04-01T08:39:42;9.40;99.90
15717;DHT22;7960;50.908;4.204;2023-04-01T08:42:44;9.40;99.90
15717;DHT22;7960;50.908;4.204;2023-04-01T08:45:33;9.20;99.90
15717;DHT22;7960;50.908;4.204;2023-04-01T08:51:15;9.20;99.90
15717;DHT22;7960;50.908;4.204;2023-04-01T08:54:04;9.20;99.90
15717;DHT22;7960;50.908;4.204;2023-04-01T08:56:40;9.30;99.90
15717;DHT22;7960;50.908;4.204;2023-04-01T08:59:27;9.30;99.90
15717;DHT22;7960;50.908;4.204;2023-04-01T09:02:34;9.30;99.90
15717;DHT22;7960;50.908;4.204;2023-04-01T09:05:36;9.30;99.90
15717;DHT22;7960;50.908;4.204;2023-04-01T09:08:30;9.40;99.90
15717;DHT22;7960;50.908;4.204;2023-04-01T09:11:08;9.40;99.90
15717;DHT22;7960;50.908;4.204;2023-04-01T09:14:10;9.40;99.90
15717;DHT22;7960;50.908;4.204;2023-04-01T09:17:01;9.40;99.90
15717;DHT22;7960;50.908;4.204;2023-04-01T09:19:45;9.30;99.90
15717;DHT22;7960;50.908;4.204;2023-04-01T09:22:27;9.30;99.90
15717;DHT22;7960;50.908;4.204;2023-04-01T09:25:15;9.30;99.90
15717;DHT22;7960;50.908;4.204;2023-04-01T09:27:56;9.40;99.90
15717;DHT22;7960;50.908;4.204;2023-04-01T09:30:35;9.50;99.90
15717;DHT22;7960;50.908;4.204;2023-04-01T09:33:46;9.50;99.90
15717;DHT22;7960;50.908;4.204;2023-04-01T09:36:43;9.50;99.90
15717;DHT22;7960;50.908;4.204;2023-04-01T09:39:21;9.60;99.90
15717;DHT22;7960;50.908;4.204;2023-04-01T09:42:14;9.50;99.90
15717;DHT22;7960;50.908;4.204;2023-04-01T09:44:44;9.50;99.90
15717;DHT22;7960;50.908;4.204;2023-04-01T09:47:25;9.60;99.90
15717;DHT22;7960;50.908;4.204;2023-04-01T09:50:16;9.60;99.90
15717;DHT22;7960;50.908;4.204;2023-04-01T09:52:49;9.60;99.90
15717;DHT22;7960;50.908;4.204;2023-04-01T10:08:16;9.60;99.90
15717;DHT22;7960;50.908;4.204;2023-04-01T10:11:15;9.70;99.90
15717;DHT22;7960;50.908;4.204;2023-04-01T10:14:11;9.70;99.90
15717;DHT22;7960;50.908;4.204;2023-04-01T10:17:18;9.80;99.90
15717;DHT22;7960;50.908;4.204;2023-04-01T10:20:01;9.90;99.90
15717;DHT22;7960;50.908;4.204;2023-04-01T10:26:16;9.90;99.90
15717;DHT22;7960;50.908;4.204;2023-04-01T10:32:10;9.90;99.90
15717;DHT22;7960;50.908;4.204;2023-04-01T10:35:04;9.90;99.90
15717;DHT22;7960;50.908;4.204;2023-04-01T10:38:02;9.90;99.90
15717;DHT22;7960;50.908;4.204;2023-04-01T10:46:51;10.00;99.90
15717;DHT22;7960;50.908;4.204;2023-04-01T10:49:43;10.00;99.90
15717;DHT22;7960;50.908;4.204;2023-04-01T10:55:37;9.90;99.90
15717;DHT22;7960;50.908;4.204;2023-04-01T11:01:43;10.10;99.90
15717;DHT22;7960;50.908;4.204;2023-04-01T11:04:59;9.90;99.90
15717;DHT22;7960;50.908;4.204;2023-04-01T11:14:22;10.10;99.90
15717;DHT22;7960;50.908;4.204;2023-04-01T11:17:23;10.10;99.90
15717;DHT22;7960;50.908;4.204;2023-04-01T11:20:23;10.00;99.90
15717;DHT22;7960;50.908;4.204;2023-04-01T11:23:16;9.90;99.90
15717;DHT22;7960;50.908;4.204;2023-04-01T11:26:08;9.90;99.90
15717;DHT22;7960;50.908;4.204;2023-04-01T11:28:47;10.00;99.90
15717;DHT22;7960;50.908;4.204;2023-04-01T11:31:32;10.10;99.90
15717;DHT22;7960;50.908;4.204;2023-04-01T11:34:13;10.10;99.90
15717;DHT22;7960;50.908;4.204;2023-04-01T11:36:51;10.00;99.90
15717;DHT22;7960;50.908;4.204;2023-04-01T11:39:29;10.10;99.90
15717;DHT22;7960;50.908;4.204;2023-04-01T11:42:09;10.00;99.90
15717;DHT22;7960;50.908;4.204;2023-04-01T11:44:43;10.10;99.90
15717;DHT22;7960;50.908;4.204;2023-04-01T11:47:33;9.90;99.90
15717;DHT22;7960;50.908;4.204;2023-04-01T11:50:16;10.00;99.90
15717;DHT22;7960;50.908;4.204;2023-04-01T11:53:18;9.90;99.90
15717;DHT22;7960;50.908;4.204;2023-04-01T11:56:07;9.90;99.90
15717;DHT22;7960;50.908;4.204;2023-04-01T11:59:14;9.90;99.90
15717;DHT22;7960;50.908;4.204;2023-04-01T12:01:55;9.90;99.90
15717;DHT22;7960;50.908;4.204;2023-04-01T12:04:44;10.00;99.90
15717;DHT22;7960;50.908;4.204;2023-04-01T12:07:40;10.00;99.90
15717;DHT22;7960;50.908;4.204;2023-04-01T12:10:17;10.10;99.90
15717;DHT22;7960;50.908;4.204;2023-04-01T12:12:52;10.00;99.90
15717;DHT22;7960;50.908;4.204;2023-04-01T12:15:30;10.00;99.90
15717;DHT22;7960;50.908;4.204;2023-04-01T12:18:05;9.90;99.90
15717;DHT22;7960;50.908;4.204;2023-04-01T12:20:46;9.90;99.90
15717;DHT22;7960;50.908;4.204;2023-04-01T12:23:40;9.90;99.90
15717;DHT22;7960;50.908;4.204;2023-04-01T12:26:43;9.90;99.90
15717;DHT22;7960;50.908;4.204;2023-04-01T12:29:34;9.90;99.90
15717;DHT22;7960;50.908;4.204;2023-04-01T12:32:06;9.80;99.90
15717;DHT22;7960;50.908;4.204;2023-04-01T12:34:53;9.70;99.90
15717;DHT22;7960;50.908;4.204;2023-04-01T12:37:30;9.80;99.90
15717;DHT22;7960;50.908;4.204;2023-04-01T12:43:27;9.70;99.90
15717;DHT22;7960;50.908;4.204;2023-04-01T12:46:02;9.90;99.90
15717;DHT22;7960;50.908;4.204;2023-04-01T12:48:51;9.80;99.90
15717;DHT22;7960;50.908;4.204;2023-04-01T12:51:27;9.80;99.90
15717;DHT22;7960;50.908;4.204;2023-04-01T12:54:18;9.80;99.90
15717;DHT22;7960;50.908;4.204;2023-04-01T12:57:01;9.90;99.90
15717;DHT22;7960;50.908;4.204;2023-04-01T12:59:45;9.80;99.90
15717;DHT22;7960;50.908;4.204;2023-04-01T13:02:26;9.80;99.90
15717;DHT22;7960;50.908;4.204;2023-04-01T13:05:15;9.80;99.90
15717;DHT22;7960;50.908;4.204;2023-04-01T13:08:03;9.70;99.90
15717;DHT22;7960;50.908;4.204;2023-04-01T13:10:51;9.80;99.90
15717;DHT22;7960;50.908;4.204;2023-04-01T13:13:50;9.70;99.90
15717;DHT22;7960;50.908;4.204;2023-04-01T13:16:26;9.80;99.90
15717;DHT22;7960;50.908;4.204;2023-04-01T13:18:58;9.70;99.90
15717;DHT22;7960;50.908;4.204;2023-04-01T13:21:35;9.80;99.90
15717;DHT22;7960;50.908;4.204;2023-04-01T13:24:11;9.80;99.90
15717;DHT22;7960;50.908;4.204;2023-04-01T13:26:50;9.80;99.90
15717;DHT22;7960;50.908;4.204;2023-04-01T13:29:25;9.90;99.90
15717;DHT22;7960;50.908;4.204;2023-04-01T13:32:06;9.90;99.90
15717;DHT22;7960;50.908;4.204;2023-04-01T13:34:48;9.90;99.90
15717;DHT22;7960;50.908;4.204;2023-04-01T13:37:27;9.80;99.90
15717;DHT22;7960;50.908;4.204;2023-04-01T13:40:10;9.80;99.90
15717;DHT22;7960;50.908;4.204;2023-04-01T13:42:44;9.80;99.90
15717;DHT22;7960;50.908;4.204;2023-04-01T13:45:16;9.80;99.90
15717;DHT22;7960;50.908;4.204;2023-04-01T13:48:12;9.80;99.90
15717;DHT22;7960;50.908;4.204;2023-04-01T13:51:06;10.00;99.90
15717;DHT22;7960;50.908;4.204;2023-04-01T13:56:41;9.90;99.90
15717;DHT22;7960;50.908;4.204;2023-04-01T13:59:29;9.80;99.90
15717;DHT22;7960;50.908;4.204;2023-04-01T14:02:14;9.90;99.90
15717;DHT22;7960;50.908;4.204;2023-04-01T14:04:56;9.80;99.90
15717;DHT22;7960;50.908;4.204;2023-04-01T14:07:47;9.70;99.90
15717;DHT22;7960;50.908;4.204;2023-04-01T14:10:23;9.80;99.90
15717;DHT22;7960;50.908;4.204;2023-04-01T14:12:58;9.90;99.90
15717;DHT22;7960;50.908;4.204;2023-04-01T14:15:37;9.90;99.90
15717;DHT22;7960;50.908;4.204;2023-04-01T14:18:22;9.80;99.90
15717;DHT22;7960;50.908;4.204;2023-04-01T14:21:12;9.80;99.90
15717;DHT22;7960;50.908;4.204;2023-04-01T14:27:02;9.80;99.90
15717;DHT22;7960;50.908;4.204;2023-04-01T14:29:38;9.90;99.90
15717;DHT22;7960;50.908;4.204;2023-04-01T14:32:16;9.80;99.90
15717;DHT22;7960;50.908;4.204;2023-04-01T14:35:01;9.70;99.90
15717;DHT22;7960;50.908;4.204;2023-04-01T14:40:49;9.70;99.90
15717;DHT22;7960;50.908;4.204;2023-04-01T14:46:24;9.70;99.90
15717;DHT22;7960;50.908;4.204;2023-04-01T14:57:39;9.50;99.90
15717;DHT22;7960;50.908;4.204;2023-04-01T15:00:13;9.50;99.90
15717;DHT22;7960;50.908;4.204;2023-04-01T15:02:48;9.60;99.90
15717;DHT22;7960;50.908;4.204;2023-04-01T15:05:31;9.60;99.90
15717;DHT22;7960;50.908;4.204;2023-04-01T15:08:16;9.50;99.90
15717;DHT22;7960;50.908;4.204;2023-04-01T15:11:12;9.60;99.90
15717;DHT22;7960;50.908;4.204;2023-04-01T15:14:04;9.60;99.90
15717;DHT22;7960;50.908;4.204;2023-04-01T15:16:39;9.60;99.90
15717;DHT22;7960;50.908;4.204;2023-04-01T15:19:15;9.50;99.90
15717;DHT22;7960;50.908;4.204;2023-04-01T15:25:08;9.50;99.90
15717;DHT22;7960;50.908;4.204;2023-04-01T15:27:44;9.50;99.90
15717;DHT22;7960;50.908;4.204;2023-04-01T15:30:29;9.50;99.90
15717;DHT22;7960;50.908;4.204;2023-04-01T15:33:18;9.50;99.90
15717;DHT22;7960;50.908;4.204;2023-04-01T15:35:52;9.60;99.90
15717;DHT22;7960;50.908;4.204;2023-04-01T15:38:33;9.60;99.90
15717;DHT22;7960;50.908;4.204;2023-04-01T15:41:07;9.60;99.90
15717;DHT22;7960;50.908;4.204;2023-04-01T15:43:41;9.50;99.90
15717;DHT22;7960;50.908;4.204;2023-04-01T15:46:27;9.60;99.90
15717;DHT22;7960;50.908;4.204;2023-04-01T15:49:19;9.50;99.90
15717;DHT22;7960;50.908;4.204;2023-04-01T15:51:58;9.60;99.90
15717;DHT22;7960;50.908;4.204;2023-04-01T15:57:40;9.60;99.90
15717;DHT22;7960;50.908;4.204;2023-04-01T16:00:24;9.60;99.90
15717;DHT22;7960;50.908;4.204;2023-04-01T16:03:24;9.50;99.90
15717;DHT22;7960;50.908;4.204;2023-04-01T16:06:13;9.40;99.90
15717;DHT22;7960;50.908;4.204;2023-04-01T16:09:02;9.50;99.90
15717;DHT22;7960;50.908;4.204;2023-04-01T16:11:43;9.40;99.90
15717;DHT22;7960;50.908;4.204;2023-04-01T16:14:21;9.40;99.90
15717;DHT22;7960;50.908;4.204;2023-04-01T16:17:19;9.30;99.90
15717;DHT22;7960;50.908;4.204;2023-04-01T16:19:56;9.30;99.90
15717;DHT22;7960;50.908;4.204;2023-04-01T16:22:28;9.20;99.90
15717;DHT22;7960;50.908;4.204;2023-04-01T16:25:13;9.30;99.90
15717;DHT22;7960;50.908;4.204;2023-04-01T16:27:46;9.40;99.90
15717;DHT22;7960;50.908;4.204;2023-04-01T16:30:34;9.50;99.90
15717;DHT22;7960;50.908;4.204;2023-04-01T16:33:04;9.40;99.90
15717;DHT22;7960;50.908;4.204;2023-04-01T16:35:41;9.40;99.90
15717;DHT22;7960;50.908;4.204;2023-04-01T16:38:18;9.40;99.90
15717;DHT22;7960;50.908;4.204;2023-04-01T16:40:52;9.30;99.90
15717;DHT22;7960;50.908;4.204;2023-04-01T16:43:28;9.20;99.90
15717;DHT22;7960;50.908;4.204;2023-04-01T16:46:14;9.30;99.90
15717;DHT22;7960;50.908;4.204;2023-04-01T16:49:01;9.40;99.90
15717;DHT22;7960;50.908;4.204;2023-04-01T16:51:41;9.30;99.90
15717;DHT22;7960;50.908;4.204;2023-04-01T16:54:17;9.20;99.90
15717;DHT22;7960;50.908;4.204;2023-04-01T16:56:49;9.30;99.90
15717;DHT22;7960;50.908;4.204;2023-04-01T16:59:21;9.30;99.90
15717;DHT22;7960;50.908;4.204;2023-04-01T17:01:53;9.30;99.90
15717;DHT22;7960;50.908;4.204;2023-04-01T17:04:27;9.40;99.90
15717;DHT22;7960;50.908;4.204;2023-04-01T17:07:05;9.30;99.90
15717;DHT22;7960;50.908;4.204;2023-04-01T17:09:45;9.40;99.90
15717;DHT22;7960;50.908;4.204;2023-04-01T17:12:19;9.40;99.90
15717;DHT22;7960;50.908;4.204;2023-04-01T17:14:57;9.30;99.90
15717;DHT22;7960;50.908;4.204;2023-04-01T17:17:42;9.20;99.90
15717;DHT22;7960;50.908;4.204;2023-04-01T17:20:18;9.20;99.90
15717;DHT22;7960;50.908;4.204;2023-04-01T17:22:55;9.20;99.90
15717;DHT22;7960;50.908;4.204;2023-04-01T17:25:40;9.20;99.90
15717;DHT22;7960;50.908;4.204;2023-04-01T17:28:24;9.20;99.90
15717;DHT22;7960;50.908;4.204;2023-04-01T17:30:59;9.10;99.90
15717;DHT22;7960;50.908;4.204;2023-04-01T17:33:41;9.20;99.90
15717;DHT22;7960;50.908;4.204;2023-04-01T17:36:18;9.20;99.90
15717;DHT22;7960;50.908;4.204;2023-04-01T17:38:59;9.20;99.90
15717;DHT22;7960;50.908;4.204;2023-04-01T17:41:35;9.10;99.90
15717;DHT22;7960;50.908;4.204;2023-04-01T17:44:15;9.20;99.90
15717;DHT22;7960;50.908;4.204;2023-04-01T17:47:00;9.20;99.90
15717;DHT22;7960;50.908;4.204;2023-04-01T17:49:35;9.10;99.90
15717;DHT22;7960;50.908;4.204;2023-04-01T17:52:10;9.20;99.90
15717;DHT22;7960;50.908;4.204;2023-04-01T17:54:48;9.20;99.90
15717;DHT22;7960;50.908;4.204;2023-04-01T17:57:30;9.30;99.90
15717;DHT22;7960;50.908;4.204;2023-04-01T18:00:03;9.20;99.90
15717;DHT22;7960;50.908;4.204;2023-04-01T18:02:47;9.10;99.90
15717;DHT22;7960;50.908;4.204;2023-04-01T18:05:27;9.10;99.90
15717;DHT22;7960;50.908;4.204;2023-04-01T18:08:11;9.10;99.90
15717;DHT22;7960;50.908;4.204;2023-04-01T18:10:50;9.10;99.90
15717;DHT22;7960;50.908;4.204;2023-04-01T18:16:26;9.00;99.90
15717;DHT22;7960;50.908;4.204;2023-04-01T18:19:02;9.00;99.90
15717;DHT22;7960;50.908;4.204;2023-04-01T18:21:43;9.00;99.90